Airfield :







YOU CAN JOIN US ON...

 
LOGIN :

Register | Disclaimer

   EN    FR    IT 

 









Legend :    VFR   Marginal VFR   IFR   Intensive IFR   Very Intensive IFR
Visi :
Ceiling :
>= 8 km
>= 3000ft
5 to 8 km
1000 to 3000 ft
1500m to 5 km
500 to 1000 ft
800 to 1500m
200 to 500 ft
< 800m
< 200 ft
Symbols :   Thunderstorms  Fog  Heavy snow  Heavy precipitations  Wind > 20 kt







- Airport Elevation : 171 ft
- IATA code : KEF


BIKF - Keflavik International

CURRENT METAR :
  • 200730Z 09009KT 9999 VCSH FEW038 BKN051 BKN071 09/05 Q1008

EXPIRED METARs :
  • 200700Z 09008KT 9999 FEW036 BKN051 09/05 Q1008
  • 200630Z 08007KT 9999 FEW035 BKN049 08/05 Q1008
  • 200600Z 09008KT 9999 FEW039 BKN048 08/05 Q1008
  • 200530Z 09008KT 9999 FEW032 BKN046 09/05 Q1008
  • 200500Z 10008KT 9999 FEW036 SCT047 08/05 Q1008

TAF TAF BIKF
Valid from the 20 at 06:00 until the 21 at 06:00 UTC


200402Z 2006/2106 13010KT CAVOK TX13/2015Z TN08/2006Z
PROB40
TEMPO 2006/2014 SHRA SCT015 BKN030
BECMG 2020/2022 13020KT -RA BKN015 OVC030
No reported NOTAMs for that airfield.



MET'MAP, your aeronautical weather chart ! - Copyright ORBIFLY December 2007 - Disclaimer

ORBIFLY MET'MAP TEAM :

Programming & Development : Alexandra Zaïnal
Concept & Development : Baudouin d'Aumeries
Co-Development & Prog : Marc-Olivier Méhu
Technical & hardware support : Manuel Goepfert

Contact : metmap@orbifly.com




SOURCES & CREDITS :

   NOAA